Time;durP1;ratioP1;P1;durP2;ratioP2;P2;SDS_P1;SDS_P2;PMS_P1;PMS_P2;Temp;Humidity;BMP_temperature;BMP_pressure;BME280_temperature;BME280_humidity;BME280_pressure;Samples;Min_cycle;Max_cycle;Signal;HPM_P1;HPM_P2
2023/06/22 00:01:56;;;;;;;10.73;9.70;;;18.40;72.60;;;;;;4989377;28;20575;-51
2023/06/22 00:04:22;;;;;;;10.87;9.80;;;18.40;74.10;;;;;;4990995;28;20555;-52
2023/06/22 00:06:49;;;;;;;10.50;9.40;;;18.40;74.10;;;;;;4991884;28;20548;-52
2023/06/22 00:09:15;;;;;;;9.40;8.50;;;18.40;83.70;;;;;;4990766;28;20465;-51
2023/06/22 00:11:42;;;;;;;15.03;9.40;;;18.40;85.50;;;;;;4990041;28;20484;-51
2023/06/22 00:14:10;;;;;;;10.20;9.40;;;18.40;88.60;;;;;;4993913;28;20489;-52
2023/06/22 00:16:36;;;;;;;10.67;9.67;;;18.40;90.40;;;;;;4990746;28;20476;-53
2023/06/22 00:19:03;;;;;;;8.87;8.07;;;18.40;75.60;;;;;;4989434;28;20899;-51
2023/06/22 00:21:31;;;;;;;9.57;8.63;;;18.30;71.60;;;;;;4988398;28;21010;-51
2023/06/22 00:23:58;;;;;;;9.50;8.60;;;18.30;75.40;;;;;;5007657;28;20835;-52
2023/06/22 00:26:24;;;;;;;10.73;7.30;;;18.30;77.00;;;;;;4989670;28;20845;-51
2023/06/22 00:28:51;;;;;;;17.83;8.90;;;18.20;80.50;;;;;;4994316;28;21063;-53
2023/06/22 00:31:19;;;;;;;8.93;8.13;;;18.20;74.40;;;;;;4991924;28;20488;-51
2023/06/22 00:33:46;;;;;;;8.80;8.00;;;18.10;75.40;;;;;;4989929;28;20492;-51
2023/06/22 00:36:16;;;;;;;9.97;8.97;;;18.10;68.90;;;;;;4993497;28;20468;-52
2023/06/22 00:38:42;;;;;;;10.73;8.97;;;18.10;61.70;;;;;;4996604;28;20483;-54
2023/06/22 00:41:09;;;;;;;8.80;8.00;;;18.10;57.70;;;;;;4997869;28;20574;-53
2023/06/22 00:43:35;;;;;;;14.00;9.73;;;18.10;60.60;;;;;;4994582;28;20502;-52
2023/06/22 00:46:03;;;;;;;9.70;8.80;;;18.00;58.10;;;;;;4994663;28;20504;-52
2023/06/22 00:48:30;;;;;;;9.87;8.83;;;18.00;52.80;;;;;;4987917;28;21010;-52
2023/06/22 00:50:57;;;;;;;8.93;8.17;;;17.90;59.50;;;;;;4993698;28;20485;-52
2023/06/22 00:53:24;;;;;;;8.77;8.00;;;17.80;60.70;;;;;;4989871;28;20556;-52
2023/06/22 00:55:51;;;;;;;10.83;9.93;;;17.80;48.80;;;;;;4978164;28;20489;-52
2023/06/22 00:58:21;;;;;;;9.80;8.93;;;17.80;48.00;;;;;;4992518;28;20464;-53
2023/06/22 01:00:48;;;;;;;10.27;9.27;;;17.70;49.80;;;;;;4992949;28;20492;-52
2023/06/22 01:03:16;;;;;;;10.33;9.30;;;17.70;47.90;;;;;;4992741;28;20848;-53
2023/06/22 01:05:46;;;;;;;13.33;9.63;;;17.60;49.90;;;;;;4993456;28;20465;-50
2023/06/22 01:08:24;;;;;;;11.43;9.43;;;17.50;51.60;;;;;;4992045;28;20990;-52
2023/06/22 01:10:54;;;;;;;10.77;9.80;;;17.50;50.40;;;;;;4984084;28;20564;-51
2023/06/22 01:13:28;;;;;;;11.13;10.10;;;17.50;37.50;;;;;;4992350;28;20523;-51
2023/06/22 01:16:01;;;;;;;10.80;9.80;;;17.40;34.50;;;;;;4993412;28;21021;-51
2023/06/22 01:18:31;;;;;;;10.83;9.73;;;17.30;29.40;;;;;;4990284;28;20493;-53
2023/06/22 01:21:02;;;;;;;13.43;10.37;;;17.30;26.60;;;;;;4992646;28;20508;-52
2023/06/22 01:23:41;;;;;;;12.10;11.10;;;17.30;25.30;;;;;;4992558;28;20468;-51
2023/06/22 01:26:18;;;;;;;11.30;10.40;;;17.20;25.60;;;;;;4989132;28;20522;-51
2023/06/22 01:28:47;;;;;;;11.60;10.50;;;17.20;23.30;;;;;;4983658;28;20489;-53
2023/06/22 01:31:16;;;;;;;12.90;11.53;;;17.20;95.60;;;;;;4992178;28;20488;-52
2023/06/22 01:33:47;;;;;;;11.50;10.40;;;17.20;96.50;;;;;;4993523;28;20467;-52
2023/06/22 01:36:15;;;;;;;11.20;10.03;;;17.20;99.90;;;;;;4992739;28;20488;-53
2023/06/22 01:38:44;;;;;;;12.20;11.00;;;17.20;99.90;;;;;;4993385;28;20582;-53
2023/06/22 01:41:11;;;;;;;10.23;9.33;;;17.20;93.70;;;;;;4987231;28;20604;-52
2023/06/22 01:43:38;;;;;;;11.60;10.40;;;17.20;20.50;;;;;;4988212;28;20492;-52
2023/06/22 01:46:06;;;;;;;11.90;10.70;;;17.20;96.70;;;;;;4984678;28;20509;-52
2023/06/22 01:48:32;;;;;;;12.03;10.93;;;17.10;99.90;;;;;;4990797;28;20511;-52
2023/06/22 01:50:59;;;;;;;12.20;10.97;;;17.10;99.90;;;;;;4994382;28;20859;-52
2023/06/22 01:53:26;;;;;;;12.53;11.43;;;17.10;99.90;;;;;;4993116;28;20908;-52
2023/06/22 01:55:53;;;;;;;11.73;10.40;;;17.00;99.90;;;;;;4995795;28;20492;-52
2023/06/22 01:58:22;;;;;;;11.90;10.87;;;17.00;99.90;;;;;;4996061;28;20476;-52
2023/06/22 02:00:52;;;;;;;12.63;11.43;;;17.00;99.90;;;;;;4993463;28;20986;-53
2023/06/22 02:03:23;;;;;;;20.50;11.27;;;17.00;99.90;;;;;;5029762;23;20531;-50
2023/06/22 02:05:57;;;;;;;15.00;9.80;;;16.90;99.90;;;;;;5013843;28;20451;-50
2023/06/22 02:08:29;;;;;;;12.00;10.77;;;17.00;99.90;;;;;;5009415;28;20519;-50
2023/06/22 02:10:58;;;;;;;11.90;10.87;;;16.90;99.90;;;;;;5008698;28;20464;-50
2023/06/22 02:13:26;;;;;;;11.53;10.53;;;16.90;99.90;;;;;;5008010;28;21158;-51
2023/06/22 02:15:53;;;;;;;11.30;10.33;;;16.90;99.90;;;;;;5000957;28;20448;-50
2023/06/22 02:18:21;;;;;;;12.20;11.03;;;16.90;99.90;;;;;;5004112;28;20924;-51
2023/06/22 02:20:47;;;;;;;12.70;11.60;;;16.90;99.90;;;;;;5016758;28;20463;-50
2023/06/22 02:23:14;;;;;;;12.43;11.37;;;16.80;99.90;;;;;;5011868;28;20503;-51
2023/06/22 02:25:44;;;;;;;12.13;10.93;;;16.80;99.90;;;;;;5004476;28;20460;-50
2023/06/22 02:28:10;;;;;;;11.57;10.57;;;16.80;99.90;;;;;;5007938;28;20563;-50
2023/06/22 02:30:37;;;;;;;17.00;11.20;;;16.80;99.90;;;;;;5008014;28;20491;-50
2023/06/22 02:33:03;;;;;;;13.20;9.87;;;16.80;99.90;;;;;;5012375;28;20480;-50
2023/06/22 02:35:31;;;;;;;18.30;10.30;;;16.80;99.90;;;;;;5014084;28;20496;-51
2023/06/22 02:37:59;;;;;;;11.93;10.80;;;16.80;99.90;;;;;;5015077;28;20488;-50
2023/06/22 02:40:26;;;;;;;11.60;10.50;;;16.80;99.90;;;;;;5012983;28;20486;-51
2023/06/22 02:42:52;;;;;;;23.83;11.40;;;16.80;99.90;;;;;;5010865;28;20509;-50
2023/06/22 02:45:19;;;;;;;12.00;10.87;;;16.80;99.90;;;;;;5003003;28;20882;-50
2023/06/22 02:47:47;;;;;;;10.73;9.67;;;16.80;99.90;;;;;;5011231;28;20935;-50
2023/06/22 02:50:14;;;;;;;12.20;10.57;;;16.80;99.90;;;;;;5011011;28;20866;-49
2023/06/22 02:52:41;;;;;;;12.53;11.30;;;16.80;99.90;;;;;;5021840;28;20559;-50
2023/06/22 02:55:09;;;;;;;12.13;10.90;;;16.80;99.90;;;;;;5024604;28;20492;-50
2023/06/22 02:57:35;;;;;;;10.50;9.60;;;16.80;99.90;;;;;;5011976;28;20487;-51
2023/06/22 03:00:15;;;;;;;12.50;11.30;;;16.80;99.90;;;;;;5010554;28;20467;-51
2023/06/22 03:02:41;;;;;;;11.70;10.60;;;16.80;99.90;;;;;;5007074;28;20574;-50
2023/06/22 03:05:13;;;;;;;15.30;10.80;;;16.80;99.90;;;;;;5012496;28;20488;-50
2023/06/22 03:07:42;;;;;;;11.00;10.10;;;16.80;99.90;;;;;;5003594;28;20463;-50
2023/06/22 03:10:10;;;;;;;11.57;10.57;;;16.90;99.90;;;;;;5013989;28;20467;-51
2023/06/22 03:12:37;;;;;;;14.97;10.00;;;16.80;99.90;;;;;;5019913;28;20492;-51
2023/06/22 03:15:04;;;;;;;12.90;10.23;;;16.80;99.90;;;;;;5012153;28;20547;-51
2023/06/22 03:17:30;;;;;;;13.23;11.73;;;16.90;99.90;;;;;;5009627;28;20448;-51
2023/06/22 03:19:57;;;;;;;16.53;10.90;;;16.90;99.90;;;;;;5010510;28;20494;-50
2023/06/22 03:22:23;;;;;;;13.00;11.30;;;17.00;99.90;;;;;;5011749;28;20492;-50
2023/06/22 03:24:51;;;;;;;10.83;9.77;;;17.00;99.90;;;;;;5014862;28;20909;-51
2023/06/22 03:27:18;;;;;;;11.67;10.43;;;17.00;99.90;;;;;;5014215;28;20519;-50
2023/06/22 03:29:45;;;;;;;12.00;10.80;;;17.00;99.90;;;;;;5005612;28;20485;-50
2023/06/22 03:32:12;;;;;;;11.77;10.77;;;16.90;99.90;;;;;;5009923;28;20483;-50
2023/06/22 03:34:38;;;;;;;11.23;10.23;;;17.00;99.90;;;;;;5007803;28;20547;-50
2023/06/22 03:37:05;;;;;;;12.30;11.30;;;16.90;99.90;;;;;;5011046;28;20495;-49
2023/06/22 03:39:32;;;;;;;12.73;9.97;;;17.00;99.90;;;;;;5010656;28;20492;-50
2023/06/22 03:42:00;;;;;;;13.07;10.70;;;17.00;99.90;;;;;;5008618;28;20519;-50
2023/06/22 03:44:27;;;;;;;13.27;11.97;;;17.00;99.90;;;;;;5010796;28;20492;-50
2023/06/22 03:46:53;;;;;;;13.70;11.57;;;17.10;99.90;;;;;;5010875;28;20520;-50
2023/06/22 03:49:20;;;;;;;12.70;11.47;;;17.10;99.90;;;;;;5005839;28;20938;-51
2023/06/22 03:51:46;;;;;;;12.50;11.30;;;17.10;99.90;;;;;;5006313;28;20496;-51
2023/06/22 03:54:13;;;;;;;18.83;11.40;;;17.20;99.90;;;;;;5010820;28;20495;-51
2023/06/22 03:56:39;;;;;;;11.67;10.00;;;17.20;99.90;;;;;;5012895;28;20486;-51
2023/06/22 03:59:07;;;;;;;14.50;11.00;;;17.20;99.90;;;;;;5020882;28;21036;-50
2023/06/22 04:01:34;;;;;;;13.47;11.03;;;17.30;99.90;;;;;;5011757;28;20503;-51
2023/06/22 04:04:00;;;;;;;10.40;9.53;;;17.30;99.90;;;;;;5011028;28;20464;-51
2023/06/22 04:06:27;;;;;;;11.43;10.23;;;17.30;99.90;;;;;;5011515;28;20487;-51
2023/06/22 04:08:54;;;;;;;10.70;9.47;;;17.40;99.90;;;;;;5009483;28;20992;-50
2023/06/22 04:11:20;;;;;;;11.13;10.13;;;17.40;99.90;;;;;;5012780;28;21170;-51
2023/06/22 04:13:48;;;;;;;15.57;10.70;;;17.40;99.90;;;;;;5013883;28;20459;-50
2023/06/22 04:16:16;;;;;;;11.03;10.10;;;17.50;99.90;;;;;;5015097;28;20463;-51
2023/06/22 04:18:43;;;;;;;12.00;10.37;;;17.50;99.90;;;;;;5014563;28;20487;-50
2023/06/22 04:21:10;;;;;;;14.40;10.87;;;17.60;99.90;;;;;;5015300;28;20525;-51
2023/06/22 04:23:37;;;;;;;10.43;9.53;;;17.60;99.90;;;;;;5014580;28;20515;-51
2023/06/22 04:26:03;;;;;;;10.97;9.83;;;17.70;99.90;;;;;;5009298;28;20495;-51
2023/06/22 04:28:34;;;;;;;11.60;10.60;;;17.70;99.90;;;;;;5008369;28;20574;-52
2023/06/22 04:31:02;;;;;;;11.70;10.30;;;17.70;99.90;;;;;;5014562;28;20459;-51
2023/06/22 04:33:30;;;;;;;14.10;10.13;;;17.80;99.90;;;;;;5012138;28;20483;-51
2023/06/22 04:35:57;;;;;;;15.40;10.77;;;17.90;99.90;;;;;;5008939;28;20463;-52
2023/06/22 04:38:24;;;;;;;15.60;9.87;;;18.00;99.90;;;;;;5010952;28;20470;-52
2023/06/22 04:40:51;;;;;;;11.63;9.87;;;18.00;99.90;;;;;;5008237;28;20546;-51
2023/06/22 04:43:18;;;;;;;13.30;9.83;;;18.00;99.90;;;;;;5011154;28;20573;-51
2023/06/22 04:45:44;;;;;;;10.87;9.70;;;18.20;99.90;;;;;;5014523;28;20559;-52
2023/06/22 04:48:15;;;;;;;13.10;11.70;;;18.20;99.90;;;;;;5019183;28;20559;-52
2023/06/22 04:50:44;;;;;;;10.83;9.70;;;18.30;99.90;;;;;;5010141;28;20547;-51
2023/06/22 04:53:12;;;;;;;10.13;9.23;;;18.40;99.90;;;;;;5006025;28;20479;-52
2023/06/22 04:55:41;;;;;;;13.40;8.10;;;18.40;99.90;;;;;;5003522;28;20459;-53
2023/06/22 04:58:08;;;;;;;9.67;8.67;;;18.50;99.90;;;;;;5008951;28;20527;-52
2023/06/22 05:00:36;;;;;;;8.93;7.57;;;18.60;21.00;;;;;;5010996;28;20492;-51
2023/06/22 05:03:03;;;;;;;9.30;7.20;;;18.70;27.10;;;;;;5013388;28;20487;-52
2023/06/22 05:05:30;;;;;;;9.10;7.40;;;18.80;28.30;;;;;;5012088;28;20533;-52
2023/06/22 05:08:00;;;;;;;12.27;8.10;;;18.80;32.30;;;;;;5011862;28;20463;-52
2023/06/22 05:10:27;;;;;;;9.10;7.10;;;19.00;42.70;;;;;;5018484;28;20487;-51
2023/06/22 05:12:53;;;;;;;7.30;6.60;;;19.10;67.10;;;;;;5005926;28;20484;-51
2023/06/22 05:15:20;;;;;;;11.40;7.07;;;19.30;69.20;;;;;;5016815;28;20555;-52
2023/06/22 05:17:46;;;;;;;10.53;7.30;;;19.40;73.90;;;;;;5003660;28;20463;-51
2023/06/22 05:20:13;;;;;;;6.43;5.83;;;19.50;99.90;;;;;;5002254;28;20546;-50
2023/06/22 05:22:42;;;;;;;12.60;6.73;;;19.60;99.90;;;;;;5007686;28;20892;-51
2023/06/22 05:25:11;;;;;;;7.13;6.33;;;19.70;99.90;;;;;;5010959;28;20483;-52
2023/06/22 05:27:40;;;;;;;6.80;6.27;;;19.80;99.90;;;;;;5011441;28;20466;-53
2023/06/22 05:30:08;;;;;;;10.93;6.50;;;19.80;99.90;;;;;;5013678;28;20488;-51
2023/06/22 05:32:35;;;;;;;10.30;5.93;;;20.00;99.90;;;;;;5013574;28;20519;-49
2023/06/22 05:35:01;;;;;;;6.77;5.20;;;20.00;99.90;;;;;;5001179;28;21008;-50
2023/06/22 05:37:29;;;;;;;13.20;4.93;;;20.20;99.90;;;;;;5013689;28;20494;-50
2023/06/22 05:39:57;;;;;;;5.70;5.20;;;20.20;99.90;;;;;;5009253;28;20957;-49
2023/06/22 05:42:25;;;;;;;6.20;5.30;;;20.30;99.90;;;;;;5011108;28;20530;-51
2023/06/22 05:44:53;;;;;;;5.57;5.07;;;20.30;99.90;;;;;;5011602;28;20546;-50
2023/06/22 05:47:19;;;;;;;4.93;4.43;;;20.30;99.90;;;;;;5013141;28;20470;-50
2023/06/22 05:49:46;;;;;;;6.60;5.00;;;20.30;99.90;;;;;;5014223;28;20865;-50
2023/06/22 05:52:12;;;;;;;5.83;4.63;;;20.30;99.90;;;;;;5013597;28;20519;-50
2023/06/22 05:54:41;;;;;;;6.27;5.00;;;20.20;99.90;;;;;;5013733;28;20495;-50
2023/06/22 05:57:08;;;;;;;5.60;4.87;;;20.20;99.90;;;;;;5010586;28;20545;-49
2023/06/22 05:59:36;;;;;;;11.80;4.73;;;20.20;99.90;;;;;;5008503;28;20462;-49
2023/06/22 06:02:02;;;;;;;5.60;5.07;;;20.20;99.90;;;;;;5012627;28;20512;-50
2023/06/22 06:04:29;;;;;;;10.50;4.80;;;20.30;99.90;;;;;;5013770;28;20812;-50
2023/06/22 06:06:55;;;;;;;6.57;5.37;;;20.20;99.90;;;;;;5013356;28;20495;-50
2023/06/22 06:09:22;;;;;;;4.23;3.83;;;20.30;99.90;;;;;;5011754;28;20575;-50
2023/06/22 06:11:48;;;;;;;5.70;3.83;;;20.40;99.90;;;;;;5008214;28;20508;-52
2023/06/22 06:14:17;;;;;;;5.37;3.83;;;20.50;99.90;;;;;;5007806;28;20560;-50
2023/06/22 06:16:44;;;;;;;5.03;4.50;;;20.60;99.90;;;;;;5012140;28;20598;-49
2023/06/22 06:19:11;;;;;;;4.27;3.97;;;20.60;99.90;;;;;;5007770;28;20471;-49
2023/06/22 06:21:37;;;;;;;5.13;4.63;;;20.70;99.90;;;;;;5012974;28;20490;-50
2023/06/22 06:24:05;;;;;;;11.10;4.10;;;20.80;99.90;;;;;;5010760;28;20491;-50
2023/06/22 06:26:32;;;;;;;4.57;4.17;;;20.90;99.90;;;;;;5012290;28;20467;-50
2023/06/22 06:29:02;;;;;;;4.17;3.80;;;20.90;99.90;;;;;;5011794;28;20900;-50
2023/06/22 06:31:29;;;;;;;4.77;4.23;;;21.00;99.90;;;;;;5011230;28;20875;-50
2023/06/22 06:33:57;;;;;;;7.90;4.70;;;21.20;20.30;;;;;;5011614;28;20962;-49
2023/06/22 06:36:24;;;;;;;10.10;4.50;;;21.20;49.50;;;;;;5012363;28;20456;-50
2023/06/22 06:38:50;;;;;;;9.80;5.23;;;21.30;31.10;;;;;;5011759;28;20467;-49
2023/06/22 06:41:17;;;;;;;9.10;5.10;;;21.50;35.90;;;;;;5003761;28;20544;-49
2023/06/22 06:43:43;;;;;;;6.30;5.13;;;21.50;43.60;;;;;;5004119;28;20562;-51
2023/06/22 06:46:10;;;;;;;8.07;5.00;;;21.70;59.50;;;;;;5010986;28;20914;-51
2023/06/22 06:48:37;;;;;;;5.17;4.67;;;21.70;55.50;;;;;;5012095;28;20480;-50
2023/06/22 06:51:05;;;;;;;4.93;4.40;;;21.70;66.70;;;;;;5008551;28;21021;-50
2023/06/22 06:53:31;;;;;;;8.63;4.10;;;21.80;60.80;;;;;;5011435;28;20545;-50
2023/06/22 06:55:58;;;;;;;5.37;4.87;;;21.80;66.80;;;;;;5003510;28;20962;-50
2023/06/22 06:58:24;;;;;;;4.73;4.30;;;21.90;99.80;;;;;;5011023;28;21008;-50
2023/06/22 07:00:51;;;;;;;4.80;4.00;;;21.90;98.90;;;;;;5012142;28;20496;-50
2023/06/22 07:03:17;;;;;;;4.70;4.30;;;21.90;96.90;;;;;;5008841;28;20625;-50
2023/06/22 07:05:44;;;;;;;4.90;4.23;;;22.00;96.10;;;;;;5010667;28;20539;-51
2023/06/22 07:08:12;;;;;;;6.13;4.43;;;22.10;98.30;;;;;;5005971;28;20501;-51
2023/06/22 07:10:39;;;;;;;4.13;3.83;;;22.20;99.90;;;;;;5009694;28;20484;-51
2023/06/22 07:13:05;;;;;;;10.33;3.90;;;22.20;99.90;;;;;;5010926;28;20567;-51
2023/06/22 07:15:32;;;;;;;5.83;3.73;;;22.30;99.90;;;;;;5011302;28;20503;-51
2023/06/22 07:17:58;;;;;;;6.10;3.37;;;22.30;99.90;;;;;;5009123;28;20973;-50
2023/06/22 07:20:25;;;;;;;3.63;3.07;;;22.30;99.90;;;;;;5010670;28;20502;-51
2023/06/22 07:22:53;;;;;;;4.27;3.87;;;22.50;99.90;;;;;;5010622;28;21790;-51
2023/06/22 07:25:20;;;;;;;4.97;3.20;;;22.50;99.90;;;;;;5007916;28;20464;-51
2023/06/22 07:27:57;;;;;;;3.47;3.17;;;22.50;45.80;;;;;;5009014;28;20495;-51
2023/06/22 07:30:24;;;;;;;3.17;2.87;;;22.60;63.30;;;;;;5009657;28;21080;-51
2023/06/22 07:32:50;;;;;;;4.00;2.97;;;22.70;78.10;;;;;;5011082;28;20689;-50
2023/06/22 07:35:17;;;;;;;6.00;3.30;;;22.80;97.90;;;;;;5007237;28;20631;-50
2023/06/22 07:37:44;;;;;;;5.10;3.73;;;22.80;89.20;;;;;;5007783;28;20492;-51
2023/06/22 07:40:11;;;;;;;5.40;3.47;;;22.90;97.30;;;;;;5011802;28;20514;-51
2023/06/22 07:42:39;;;;;;;3.83;3.23;;;23.00;99.90;;;;;;5011427;28;21063;-51
2023/06/22 07:45:08;;;;;;;3.50;3.20;;;23.10;99.90;;;;;;5009184;28;20463;-51
2023/06/22 07:47:35;;;;;;;4.13;2.90;;;23.20;99.90;;;;;;5010930;28;20955;-51
2023/06/22 07:50:02;;;;;;;3.53;3.13;;;23.30;99.90;;;;;;5009571;28;20488;-51
2023/06/22 07:52:29;;;;;;;4.10;2.90;;;23.50;99.90;;;;;;5011072;28;20491;-51
2023/06/22 07:54:56;;;;;;;5.87;3.37;;;23.50;99.90;;;;;;5008833;28;20951;-52
2023/06/22 07:57:23;;;;;;;10.33;3.50;;;23.70;99.90;;;;;;5012403;28;20481;-51
2023/06/22 07:59:50;;;;;;;5.37;3.33;;;23.90;99.90;;;;;;5011588;28;20506;-52
2023/06/22 08:02:17;;;;;;;7.37;3.10;;;23.90;99.90;;;;;;5012150;28;20508;-58
2023/06/22 08:04:44;;;;;;;6.13;2.97;;;24.00;99.90;;;;;;5011349;28;20484;-58
2023/06/22 08:07:11;;;;;;;3.13;2.57;;;24.10;99.90;;;;;;5012142;28;20470;-57
2023/06/22 08:09:37;;;;;;;12.10;3.17;;;24.20;99.90;;;;;;5010833;28;20480;-58
2023/06/22 08:12:05;;;;;;;3.10;2.80;;;24.20;99.90;;;;;;5012162;28;20467;-56
2023/06/22 08:14:31;;;;;;;6.50;2.77;;;24.10;99.90;;;;;;5011203;28;20506;-57
2023/06/22 08:16:59;;;;;;;3.30;2.97;;;24.10;99.90;;;;;;5012085;28;20468;-57
2023/06/22 08:19:26;;;;;;;3.10;2.90;;;24.20;99.90;;;;;;5012216;28;20463;-57
2023/06/22 08:21:52;;;;;;;4.10;2.87;;;24.20;99.90;;;;;;5012275;28;20495;-59
2023/06/22 08:24:19;;;;;;;4.20;2.67;;;24.20;99.90;;;;;;5011782;28;20505;-57
2023/06/22 08:26:46;;;;;;;6.07;3.57;;;24.10;99.90;;;;;;5012025;28;20480;-58
2023/06/22 08:29:12;;;;;;;3.73;3.30;;;24.20;99.90;;;;;;5011147;28;20463;-57
2023/06/22 08:31:39;;;;;;;4.97;2.40;;;24.30;99.90;;;;;;5004042;28;20487;-58
2023/06/22 08:34:07;;;;;;;4.17;2.93;;;24.50;99.90;;;;;;5011829;28;20459;-57
2023/06/22 08:36:37;;;;;;;4.07;2.33;;;24.60;99.90;;;;;;5010372;28;20496;-57
2023/06/22 08:39:04;;;;;;;3.43;2.80;;;24.70;99.90;;;;;;5007842;28;20464;-57
2023/06/22 08:41:31;;;;;;;8.90;3.13;;;24.80;99.90;;;;;;5011634;28;20464;-58
2023/06/22 08:43:58;;;;;;;5.43;3.17;;;24.60;99.90;;;;;;5010435;28;20464;-58
2023/06/22 08:46:30;;;;;;;7.77;3.07;;;24.40;99.90;;;;;;5010962;28;20513;-58
2023/06/22 08:48:57;;;;;;;4.60;2.53;;;24.40;99.90;;;;;;5011793;28;20542;-59
2023/06/22 08:51:25;;;;;;;4.93;3.23;;;24.50;99.90;;;;;;5011431;28;20495;-58
2023/06/22 08:53:52;;;;;;;4.80;2.90;;;24.50;99.90;;;;;;5018636;28;20493;-58
2023/06/22 08:56:19;;;;;;;5.87;2.67;;;24.60;99.90;;;;;;5031739;28;20478;-57
2023/06/22 08:58:45;;;;;;;3.23;2.93;;;24.70;99.90;;;;;;5028476;28;20463;-57
2023/06/22 09:01:12;;;;;;;3.10;2.90;;;24.50;99.90;;;;;;5014402;28;20476;-57
2023/06/22 09:03:38;;;;;;;13.67;2.47;;;24.60;99.90;;;;;;4995334;28;20495;-57
2023/06/22 09:06:05;;;;;;;5.00;3.07;;;24.60;99.90;;;;;;4995874;28;20480;-57
2023/06/22 09:08:33;;;;;;;2.70;2.50;;;24.70;99.90;;;;;;4999479;28;20452;-57
2023/06/22 09:10:59;;;;;;;4.40;2.70;;;24.70;99.90;;;;;;5013242;28;20562;-57
2023/06/22 09:13:26;;;;;;;2.57;2.40;;;24.80;99.90;;;;;;5014279;28;20530;-58
2023/06/22 09:15:52;;;;;;;3.87;2.90;;;25.00;99.90;;;;;;5012061;28;20491;-58
2023/06/22 09:18:19;;;;;;;6.13;3.23;;;25.10;99.90;;;;;;5013083;28;20491;-58
2023/06/22 09:20:46;;;;;;;3.03;2.50;;;25.10;99.90;;;;;;5013399;28;20484;-62
2023/06/22 09:23:13;;;;;;;3.50;3.10;;;25.20;99.90;;;;;;5014986;28;20463;-57
2023/06/22 09:25:41;;;;;;;4.83;2.53;;;25.40;99.90;;;;;;5012731;28;20464;-58
2023/06/22 09:28:07;;;;;;;2.47;2.37;;;25.80;99.90;;;;;;5012673;28;20462;-57
2023/06/22 09:30:34;;;;;;;3.10;2.80;;;25.60;99.90;;;;;;5012955;28;21217;-57
2023/06/22 09:33:01;;;;;;;2.40;2.20;;;25.50;99.90;;;;;;5014610;28;20464;-57
2023/06/22 09:35:27;;;;;;;2.40;2.30;;;25.60;99.90;;;;;;5013199;28;20448;-58
2023/06/22 09:37:54;;;;;;;6.87;2.30;;;25.40;99.90;;;;;;5012419;28;20844;-58
2023/06/22 09:40:20;;;;;;;2.57;2.37;;;25.30;99.90;;;;;;5012992;28;20542;-58
2023/06/22 09:42:48;;;;;;;2.13;1.93;;;25.50;99.90;;;;;;5014626;28;20503;-57
2023/06/22 09:45:15;;;;;;;1.87;1.77;;;25.70;99.90;;;;;;5012081;28;20491;-57
2023/06/22 09:47:42;;;;;;;8.80;2.30;;;25.80;99.90;;;;;;5012942;28;20500;-57
2023/06/22 09:50:09;;;;;;;3.90;2.60;;;25.80;99.90;;;;;;5014141;28;20491;-57
2023/06/22 09:52:35;;;;;;;3.20;2.90;;;25.80;99.90;;;;;;5013776;28;20471;-57
2023/06/22 09:55:03;;;;;;;2.47;2.27;;;25.90;99.90;;;;;;5013155;28;20601;-57
2023/06/22 09:57:30;;;;;;;3.57;2.17;;;25.80;99.90;;;;;;5014913;28;20538;-58
2023/06/22 09:59:57;;;;;;;6.37;2.27;;;26.00;99.90;;;;;;5013521;28;20514;-58
2023/06/22 10:02:24;;;;;;;6.73;3.00;;;26.00;99.90;;;;;;5014520;28;20984;-57
2023/06/22 10:04:51;;;;;;;6.00;2.87;;;25.90;99.90;;;;;;5014446;28;20452;-58
2023/06/22 10:07:17;;;;;;;8.07;2.57;;;25.90;99.90;;;;;;5014696;28;20472;-58
2023/06/22 10:09:44;;;;;;;2.67;2.13;;;25.90;99.90;;;;;;5014904;28;20961;-58
2023/06/22 10:12:10;;;;;;;23.57;2.83;;;26.00;99.90;;;;;;5013404;28;20484;-57
2023/06/22 10:14:37;;;;;;;4.50;2.60;;;26.10;99.90;;;;;;5008919;28;20513;-57
2023/06/22 10:17:07;;;;;;;2.53;2.33;;;26.10;99.90;;;;;;5012147;28;20552;-57
2023/06/22 10:19:33;;;;;;;4.80;2.30;;;26.30;99.90;;;;;;5010379;28;20456;-54
2023/06/22 10:22:00;;;;;;;2.87;2.60;;;26.40;99.90;;;;;;5008891;28;20492;-56
2023/06/22 10:24:26;;;;;;;7.13;2.30;;;26.80;99.90;;;;;;5008849;28;20485;-52
2023/06/22 10:26:53;;;;;;;5.07;2.70;;;27.20;99.90;;;;;;5009462;28;20972;-52
2023/06/22 10:29:21;;;;;;;4.40;2.37;;;27.60;99.90;;;;;;5007358;28;20479;-51
2023/06/22 10:31:47;;;;;;;7.07;2.40;;;27.90;99.90;;;;;;5015106;28;20526;-52
2023/06/22 10:34:15;;;;;;;4.23;2.67;;;28.10;99.90;;;;;;5012810;28;21042;-57
2023/06/22 10:36:42;;;;;;;2.67;2.47;;;27.90;99.90;;;;;;5012514;28;20502;-52
2023/06/22 10:39:09;;;;;;;2.67;2.47;;;28.00;99.90;;;;;;5013218;28;20547;-53
2023/06/22 10:41:36;;;;;;;3.07;2.73;;;28.00;99.90;;;;;;5012889;28;20480;-53
2023/06/22 10:44:02;;;;;;;2.83;2.57;;;28.20;99.90;;;;;;5012602;28;20468;-51
2023/06/22 10:46:29;;;;;;;5.30;2.83;;;28.20;99.90;;;;;;5014085;28;20483;-51
2023/06/22 10:48:58;;;;;;;2.63;2.43;;;28.90;99.90;;;;;;5008544;28;20496;-52
2023/06/22 10:51:28;;;;;;;3.13;2.90;;;28.70;99.90;;;;;;5011772;28;20574;-54
2023/06/22 10:53:54;;;;;;;3.30;2.97;;;29.50;99.90;;;;;;5010913;28;20467;-53
2023/06/22 10:56:21;;;;;;;3.20;2.90;;;29.80;99.90;;;;;;5013625;28;20487;-52
2023/06/22 10:58:47;;;;;;;6.20;2.70;;;29.20;99.90;;;;;;5009819;28;20521;-53
2023/06/22 11:01:14;;;;;;;2.60;2.50;;;28.90;99.90;;;;;;5013687;28;20495;-54
2023/06/22 11:03:40;;;;;;;2.87;2.63;;;28.20;99.90;;;;;;5015954;28;20476;-53
2023/06/22 11:06:07;;;;;;;3.57;3.27;;;28.60;99.90;;;;;;5020017;28;20510;-53
2023/06/22 11:08:35;;;;;;;3.37;3.17;;;28.60;99.90;;;;;;5017229;28;20499;-53
2023/06/22 11:11:01;;;;;;;3.17;2.97;;;29.00;99.90;;;;;;5016037;28;21063;-53
2023/06/22 11:13:28;;;;;;;4.30;3.57;;;30.00;99.90;;;;;;5008072;28;20523;-52
2023/06/22 11:15:54;;;;;;;3.17;2.97;;;30.00;99.90;;;;;;5012666;28;20471;-52
2023/06/22 11:18:23;;;;;;;4.90;3.83;;;29.50;99.90;;;;;;5012939;28;20447;-52
2023/06/22 11:20:49;;;;;;;6.10;3.97;;;29.20;99.90;;;;;;5012702;28;20502;-53
2023/06/22 11:23:16;;;;;;;4.30;3.57;;;29.00;99.90;;;;;;5011797;28;20480;-52
2023/06/22 11:25:43;;;;;;;4.30;3.97;;;28.80;99.90;;;;;;5012159;28;20498;-52
2023/06/22 11:28:10;;;;;;;4.00;3.70;;;29.00;99.90;;;;;;5010830;28;20947;-53
2023/06/22 11:30:37;;;;;;;3.83;2.90;;;29.20;99.90;;;;;;5012184;28;20489;-53
2023/06/22 11:33:03;;;;;;;3.67;3.47;;;29.30;99.90;;;;;;5012656;28;20506;-52
2023/06/22 11:35:30;;;;;;;3.60;3.13;;;28.80;99.90;;;;;;5010722;28;20515;-51
2023/06/22 11:37:56;;;;;;;3.50;3.20;;;28.70;99.90;;;;;;5011100;28;20903;-52
2023/06/22 11:40:24;;;;;;;4.10;3.70;;;28.60;99.90;;;;;;5010266;28;20816;-52
2023/06/22 11:42:52;;;;;;;3.93;3.43;;;28.20;99.90;;;;;;5010178;28;20512;-52
2023/06/22 11:45:20;;;;;;;4.23;3.57;;;27.80;99.90;;;;;;5008600;28;20459;-53
2023/06/22 11:47:47;;;;;;;3.60;3.30;;;27.60;99.90;;;;;;5015920;28;20459;-53
2023/06/22 11:50:13;;;;;;;6.67;3.37;;;27.60;99.90;;;;;;5019550;28;20491;-54
2023/06/22 11:52:40;;;;;;;4.90;3.93;;;27.60;99.90;;;;;;5017335;28;20526;-53
2023/06/22 11:55:07;;;;;;;3.47;3.10;;;27.60;99.90;;;;;;5019443;28;20999;-52
2023/06/22 11:57:35;;;;;;;3.77;3.47;;;27.30;99.90;;;;;;5023497;28;20464;-52
2023/06/22 12:00:07;;;;;;;3.80;3.50;;;27.40;99.90;;;;;;5022616;28;20464;-52
2023/06/22 12:02:33;;;;;;;4.10;3.80;;;27.40;99.90;;;;;;5012470;28;20856;-52
2023/06/22 12:05:00;;;;;;;3.40;3.17;;;27.80;99.90;;;;;;5010272;28;20985;-53
2023/06/22 12:07:26;;;;;;;8.30;4.00;;;28.00;99.90;;;;;;5011575;28;20831;-52
2023/06/22 12:09:53;;;;;;;3.70;3.40;;;27.80;99.90;;;;;;5011632;28;20885;-53
2023/06/22 12:12:19;;;;;;;4.00;3.70;;;27.80;99.90;;;;;;5009711;28;20587;-52
2023/06/22 12:14:46;;;;;;;3.37;3.03;;;27.70;99.90;;;;;;5007575;28;20499;-52
2023/06/22 12:17:14;;;;;;;3.70;3.50;;;27.70;99.90;;;;;;5011613;28;20468;-53
2023/06/22 12:19:41;;;;;;;4.90;3.30;;;27.70;99.90;;;;;;5002676;28;20517;-53
2023/06/22 12:22:07;;;;;;;5.10;3.90;;;27.70;99.90;;;;;;5006849;28;20472;-53
2023/06/22 12:24:34;;;;;;;3.47;3.23;;;27.80;99.90;;;;;;5008242;28;21763;-53
2023/06/22 12:27:03;;;;;;;4.00;3.13;;;27.90;99.90;;;;;;5005673;28;20495;-52
2023/06/22 12:29:29;;;;;;;4.00;3.70;;;28.00;99.90;;;;;;5011420;28;20518;-52
2023/06/22 12:31:56;;;;;;;3.57;3.33;;;28.20;99.90;;;;;;5014129;28;20935;-53
2023/06/22 12:34:24;;;;;;;3.73;3.43;;;28.30;99.90;;;;;;5013030;28;20985;-52
2023/06/22 12:36:50;;;;;;;3.83;3.20;;;28.30;99.90;;;;;;5014679;28;20495;-54
2023/06/22 12:39:17;;;;;;;4.40;3.70;;;28.60;99.90;;;;;;5014575;28;20494;-52
2023/06/22 12:41:44;;;;;;;2.63;2.53;;;28.20;99.90;;;;;;5013734;28;20510;-51